Brevik Bridge — VRHY7 — position and weather

sailwx.info

Track history (hours):
 
Tides and Currents Weather Stations Pressure Air Temp Water Temp Dewpoint Dewpoint Depression Visibility Wind Speed Wind Dir Waves Ship Positions

Brevik Bridge

Last reported at 2017-Feb-19 10:18 UTC. Time now 2017-Feb-22 06:36 UTC.
Position S 20°16' E 056°03'.

Length 268 m; draft 11.7 m.

Type: Ship (hazmat cat B). MMSI: 477866200.

Date/timePositionNaut miles runAvg speedWind from/ knotsBaromVisibWave heightAir tempDewpointWater temp
2017-Feb-19 10:18S 20°16' E 056°03'1515.6
2017-Feb-19 09:23S 20°11' E 056°17'1315.8
2017-Feb-19 08:33S 20°05' E 056°29'1615.8
2017-Feb-19 07:33S 19°58' E 056°44'1616.0
2017-Feb-19 06:33S 19°52' E 056°60'1615.8
2017-Feb-19 05:33S 19°45' E 057°15'1616.2
2017-Feb-19 04:34S 19°39' E 057°31'1616.3
2017-Feb-19 03:34S 19°32' E 057°47'  
2017-Feb-11 04:05N 01°54' E 102°22'1017.3
2017-Feb-11 03:30N 01°49' E 102°31'1516.1
2017-Feb-11 02:32N 01°43' E 102°45'4915.9
2017-Feb-10 23:27N 01°14' E 103°25'1415.4
2017-Feb-10 22:33N 01°12' E 103°39'9 8.5
2017-Feb-10 21:34N 01°17' E 103°46'0 0.0
2017-Feb-10 20:31N 01°17' E 103°46'0 0.1
2017-Feb-10 19:31N 01°17' E 103°46'0 0.1
2017-Feb-10 18:28N 01°17' E 103°46'0 0.0
2017-Feb-10 17:31N 01°17' E 103°46'0 0.0
2017-Feb-10 16:31N 01°17' E 103°46'0 0.0
2017-Feb-10 15:28N 01°17' E 103°46'0 0.1
2017-Feb-10 14:31N 01°17' E 103°46'0 0.1
2017-Feb-10 13:31N 01°17' E 103°46'0 0.0
2017-Feb-10 12:31N 01°17' E 103°46'0 0.0
2017-Feb-10 11:31N 01°17' E 103°46'0 0.0
2017-Feb-10 10:31N 01°17' E 103°46'0 0.0
2017-Feb-10 09:31N 01°17' E 103°46'0 0.0
2017-Feb-10 08:31N 01°17' E 103°46'0 0.0
2017-Feb-10 07:28N 01°17' E 103°46'0 0.0
2017-Feb-10 06:10N 01°17' E 103°46'0 0.1
2017-Feb-10 05:28N 01°17' E 103°46'0 0.1
2017-Feb-10 04:31N 01°17' E 103°46'0 0.0
2017-Feb-10 03:33N 01°17' E 103°46'5 4.7
2017-Feb-10 02:33N 01°13' E 103°48'9 8.6
2017-Feb-10 01:33N 01°15' E 103°57'6 6.4
2017-Feb-10 00:33N 01°16' E 104°03'  
Track history (hours):
 
Tides and Currents Weather Stations Pressure Air Temp Water Temp Dewpoint Dewpoint Depression Visibility Wind Speed Wind Dir Waves Ship Positions

Brevik Bridge

Last reported at 2017-Feb-19 10:18 UTC. Time now 2017-Feb-22 06:36 UTC.
Position S 20°16' E 056°03'.

Length 268 m; draft 11.7 m.

Type: Ship (hazmat cat B). MMSI: 477866200.

Date/timePositionNaut miles runAvg speedWind from/ knotsBaromVisibWave heightAir tempDewpointWater temp
2017-Feb-19 10:18S 20°16' E 056°03'1515.6
2017-Feb-19 09:23S 20°11' E 056°17'1315.8
2017-Feb-19 08:33S 20°05' E 056°29'1615.8
2017-Feb-19 07:33S 19°58' E 056°44'1616.0
2017-Feb-19 06:33S 19°52' E 056°60'1615.8
2017-Feb-19 05:33S 19°45' E 057°15'1616.2
2017-Feb-19 04:34S 19°39' E 057°31'1616.3
2017-Feb-19 03:34S 19°32' E 057°47'  
2017-Feb-11 04:05N 01°54' E 102°22'1017.3
2017-Feb-11 03:30N 01°49' E 102°31'1516.1
2017-Feb-11 02:32N 01°43' E 102°45'4915.9
2017-Feb-10 23:27N 01°14' E 103°25'1415.4
2017-Feb-10 22:33N 01°12' E 103°39'9 8.5
2017-Feb-10 21:34N 01°17' E 103°46'0 0.0
2017-Feb-10 20:31N 01°17' E 103°46'0 0.1
2017-Feb-10 19:31N 01°17' E 103°46'0 0.1
2017-Feb-10 18:28N 01°17' E 103°46'0 0.0
2017-Feb-10 17:31N 01°17' E 103°46'0 0.0
2017-Feb-10 16:31N 01°17' E 103°46'0 0.0
2017-Feb-10 15:28N 01°17' E 103°46'0 0.1
2017-Feb-10 14:31N 01°17' E 103°46'0 0.1
2017-Feb-10 13:31N 01°17' E 103°46'0 0.0
2017-Feb-10 12:31N 01°17' E 103°46'0 0.0
2017-Feb-10 11:31N 01°17' E 103°46'0 0.0
2017-Feb-10 10:31N 01°17' E 103°46'0 0.0
2017-Feb-10 09:31N 01°17' E 103°46'0 0.0
2017-Feb-10 08:31N 01°17' E 103°46'0 0.0
2017-Feb-10 07:28N 01°17' E 103°46'0 0.0
2017-Feb-10 06:10N 01°17' E 103°46'0 0.1
2017-Feb-10 05:28N 01°17' E 103°46'0 0.1
2017-Feb-10 04:31N 01°17' E 103°46'0 0.0
2017-Feb-10 03:33N 01°17' E 103°46'5 4.7
2017-Feb-10 02:33N 01°13' E 103°48'9 8.6
2017-Feb-10 01:33N 01°15' E 103°57'6 6.4
2017-Feb-10 00:33N 01°16' E 104°03'  

Dump ship's entire track history